sensor_id;sensor_type;location;lat;lon;timestamp;P1;durP1;ratioP1;P2;durP2;ratioP2
18322;SDS011;9287;49.456;11.064;2024-01-11T00:00:57;40.53;;;27.47;;
18322;SDS011;9287;49.456;11.064;2024-01-11T00:03:25;39.60;;;27.67;;
18322;SDS011;9287;49.456;11.064;2024-01-11T00:05:56;38.77;;;27.67;;
18322;SDS011;9287;49.456;11.064;2024-01-11T00:08:32;38.77;;;27.63;;
18322;SDS011;9287;49.456;11.064;2024-01-11T00:11:00;40.43;;;27.60;;
18322;SDS011;9287;49.456;11.064;2024-01-11T00:13:30;43.87;;;29.17;;
18322;SDS011;9287;49.456;11.064;2024-01-11T00:15:59;41.30;;;27.57;;
18322;SDS011;9287;49.456;11.064;2024-01-11T00:18:28;41.60;;;27.70;;
18322;SDS011;9287;49.456;11.064;2024-01-11T00:21:01;42.23;;;29.77;;
18322;SDS011;9287;49.456;11.064;2024-01-11T00:23:29;40.47;;;28.03;;
18322;SDS011;9287;49.456;11.064;2024-01-11T00:26:03;42.07;;;29.17;;
18322;SDS011;9287;49.456;11.064;2024-01-11T00:28:34;43.67;;;29.83;;
18322;SDS011;9287;49.456;11.064;2024-01-11T00:31:03;41.87;;;29.10;;
18322;SDS011;9287;49.456;11.064;2024-01-11T00:33:34;38.90;;;29.03;;
18322;SDS011;9287;49.456;11.064;2024-01-11T00:36:05;40.50;;;29.20;;
18322;SDS011;9287;49.456;11.064;2024-01-11T00:38:35;39.17;;;27.87;;
18322;SDS011;9287;49.456;11.064;2024-01-11T00:41:09;39.47;;;27.80;;
18322;SDS011;9287;49.456;11.064;2024-01-11T00:43:38;39.93;;;27.77;;
18322;SDS011;9287;49.456;11.064;2024-01-11T00:46:14;40.63;;;27.33;;
18322;SDS011;9287;49.456;11.064;2024-01-11T00:48:43;44.03;;;29.60;;
18322;SDS011;9287;49.456;11.064;2024-01-11T00:51:13;40.80;;;26.70;;
18322;SDS011;9287;49.456;11.064;2024-01-11T00:53:42;39.43;;;28.80;;
18322;SDS011;9287;49.456;11.064;2024-01-11T00:56:17;38.30;;;27.43;;
18322;SDS011;9287;49.456;11.064;2024-01-11T00:58:48;40.83;;;28.47;;
18322;SDS011;9287;49.456;11.064;2024-01-11T01:01:30;43.30;;;27.87;;
18322;SDS011;9287;49.456;11.064;2024-01-11T01:04:01;41.83;;;27.03;;
18322;SDS011;9287;49.456;11.064;2024-01-11T01:06:31;41.47;;;27.67;;
18322;SDS011;9287;49.456;11.064;2024-01-11T01:09:02;41.17;;;27.60;;
18322;SDS011;9287;49.456;11.064;2024-01-11T01:11:35;39.43;;;27.50;;
18322;SDS011;9287;49.456;11.064;2024-01-11T01:14:09;39.23;;;28.67;;
18322;SDS011;9287;49.456;11.064;2024-01-11T01:16:38;37.77;;;26.07;;
18322;SDS011;9287;49.456;11.064;2024-01-11T01:19:06;36.83;;;26.67;;
18322;SDS011;9287;49.456;11.064;2024-01-11T01:21:36;40.27;;;28.03;;
18322;SDS011;9287;49.456;11.064;2024-01-11T01:24:06;38.20;;;26.63;;
18322;SDS011;9287;49.456;11.064;2024-01-11T01:26:36;38.70;;;26.33;;
18322;SDS011;9287;49.456;11.064;2024-01-11T01:29:06;40.47;;;27.73;;
18322;SDS011;9287;49.456;11.064;2024-01-11T01:31:34;41.47;;;27.70;;
18322;SDS011;9287;49.456;11.064;2024-01-11T01:34:09;39.27;;;26.80;;
18322;SDS011;9287;49.456;11.064;2024-01-11T01:36:41;39.63;;;27.17;;
18322;SDS011;9287;49.456;11.064;2024-01-11T01:39:09;37.90;;;27.10;;
18322;SDS011;9287;49.456;11.064;2024-01-11T01:41:37;36.83;;;25.60;;
18322;SDS011;9287;49.456;11.064;2024-01-11T01:44:07;36.87;;;26.63;;
18322;SDS011;9287;49.456;11.064;2024-01-11T01:46:35;36.70;;;27.33;;
18322;SDS011;9287;49.456;11.064;2024-01-11T01:49:04;38.03;;;25.67;;
18322;SDS011;9287;49.456;11.064;2024-01-11T01:51:36;39.10;;;28.10;;
18322;SDS011;9287;49.456;11.064;2024-01-11T01:54:08;39.40;;;26.70;;
18322;SDS011;9287;49.456;11.064;2024-01-11T01:56:37;39.27;;;27.50;;
18322;SDS011;9287;49.456;11.064;2024-01-11T01:59:07;38.30;;;27.33;;
18322;SDS011;9287;49.456;11.064;2024-01-11T02:01:38;38.43;;;26.23;;
18322;SDS011;9287;49.456;11.064;2024-01-11T02:04:07;38.93;;;27.23;;
18322;SDS011;9287;49.456;11.064;2024-01-11T02:06:43;36.40;;;25.70;;
18322;SDS011;9287;49.456;11.064;2024-01-11T02:09:18;40.20;;;27.90;;
18322;SDS011;9287;49.456;11.064;2024-01-11T02:11:47;36.53;;;28.03;;
18322;SDS011;9287;49.456;11.064;2024-01-11T02:14:15;37.67;;;28.07;;
18322;SDS011;9287;49.456;11.064;2024-01-11T02:16:51;41.53;;;29.43;;
18322;SDS011;9287;49.456;11.064;2024-01-11T02:19:21;40.20;;;27.80;;
18322;SDS011;9287;49.456;11.064;2024-01-11T02:21:50;38.33;;;28.53;;
18322;SDS011;9287;49.456;11.064;2024-01-11T02:24:26;37.87;;;26.53;;
18322;SDS011;9287;49.456;11.064;2024-01-11T02:26:58;37.47;;;27.53;;
18322;SDS011;9287;49.456;11.064;2024-01-11T02:29:29;35.67;;;26.57;;
18322;SDS011;9287;49.456;11.064;2024-01-11T02:32:05;37.93;;;26.77;;
18322;SDS011;9287;49.456;11.064;2024-01-11T02:34:42;37.50;;;25.90;;
18322;SDS011;9287;49.456;11.064;2024-01-11T02:37:11;35.70;;;24.93;;
18322;SDS011;9287;49.456;11.064;2024-01-11T02:39:46;36.40;;;27.07;;
18322;SDS011;9287;49.456;11.064;2024-01-11T02:42:20;36.57;;;26.17;;
18322;SDS011;9287;49.456;11.064;2024-01-11T02:44:51;39.83;;;27.20;;
18322;SDS011;9287;49.456;11.064;2024-01-11T02:47:19;37.13;;;26.27;;
18322;SDS011;9287;49.456;11.064;2024-01-11T02:49:50;39.60;;;27.70;;
18322;SDS011;9287;49.456;11.064;2024-01-11T02:52:23;37.33;;;27.50;;
18322;SDS011;9287;49.456;11.064;2024-01-11T02:54:55;41.43;;;28.53;;
18322;SDS011;9287;49.456;11.064;2024-01-11T02:57:25;40.00;;;26.93;;
18322;SDS011;9287;49.456;11.064;2024-01-11T03:00:03;39.70;;;27.57;;
18322;SDS011;9287;49.456;11.064;2024-01-11T03:02:35;38.43;;;26.77;;
18322;SDS011;9287;49.456;11.064;2024-01-11T03:05:05;36.47;;;27.00;;
18322;SDS011;9287;49.456;11.064;2024-01-11T03:07:36;36.70;;;26.23;;
18322;SDS011;9287;49.456;11.064;2024-01-11T03:10:10;36.73;;;27.43;;
18322;SDS011;9287;49.456;11.064;2024-01-11T03:12:39;38.27;;;26.40;;
18322;SDS011;9287;49.456;11.064;2024-01-11T03:15:10;40.17;;;27.47;;
18322;SDS011;9287;49.456;11.064;2024-01-11T03:17:39;36.73;;;26.83;;
18322;SDS011;9287;49.456;11.064;2024-01-11T03:20:08;37.40;;;26.80;;
18322;SDS011;9287;49.456;11.064;2024-01-11T03:22:37;37.90;;;27.87;;
18322;SDS011;9287;49.456;11.064;2024-01-11T03:25:13;44.13;;;27.70;;
18322;SDS011;9287;49.456;11.064;2024-01-11T03:27:44;37.77;;;26.60;;
18322;SDS011;9287;49.456;11.064;2024-01-11T03:30:13;38.53;;;28.10;;
18322;SDS011;9287;49.456;11.064;2024-01-11T03:32:43;38.80;;;26.07;;
18322;SDS011;9287;49.456;11.064;2024-01-11T03:35:11;37.77;;;26.00;;
18322;SDS011;9287;49.456;11.064;2024-01-11T03:37:41;37.47;;;25.97;;
18322;SDS011;9287;49.456;11.064;2024-01-11T03:40:11;41.03;;;28.77;;
18322;SDS011;9287;49.456;11.064;2024-01-11T03:42:41;40.93;;;26.87;;
18322;SDS011;9287;49.456;11.064;2024-01-11T03:45:18;38.20;;;26.23;;
18322;SDS011;9287;49.456;11.064;2024-01-11T03:47:47;44.17;;;28.30;;
18322;SDS011;9287;49.456;11.064;2024-01-11T03:50:15;37.77;;;26.63;;
18322;SDS011;9287;49.456;11.064;2024-01-11T03:52:43;40.33;;;27.90;;
18322;SDS011;9287;49.456;11.064;2024-01-11T03:55:11;38.67;;;28.03;;
18322;SDS011;9287;49.456;11.064;2024-01-11T03:57:47;43.87;;;27.47;;
18322;SDS011;9287;49.456;11.064;2024-01-11T04:00:17;39.30;;;27.53;;
18322;SDS011;9287;49.456;11.064;2024-01-11T04:02:47;41.63;;;28.77;;
18322;SDS011;9287;49.456;11.064;2024-01-11T04:05:16;40.07;;;26.07;;
18322;SDS011;9287;49.456;11.064;2024-01-11T04:07:44;39.57;;;26.07;;
18322;SDS011;9287;49.456;11.064;2024-01-11T04:10:17;40.87;;;28.47;;
18322;SDS011;9287;49.456;11.064;2024-01-11T04:12:47;39.17;;;26.07;;
18322;SDS011;9287;49.456;11.064;2024-01-11T04:15:15;42.17;;;28.70;;
18322;SDS011;9287;49.456;11.064;2024-01-11T04:17:48;38.20;;;27.90;;
18322;SDS011;9287;49.456;11.064;2024-01-11T04:20:19;38.20;;;27.87;;
18322;SDS011;9287;49.456;11.064;2024-01-11T04:22:50;38.00;;;26.93;;
18322;SDS011;9287;49.456;11.064;2024-01-11T04:25:23;40.40;;;26.17;;
18322;SDS011;9287;49.456;11.064;2024-01-11T04:27:52;40.47;;;27.67;;
18322;SDS011;9287;49.456;11.064;2024-01-11T04:30:23;42.77;;;27.37;;
18322;SDS011;9287;49.456;11.064;2024-01-11T04:32:52;38.17;;;27.00;;
18322;SDS011;9287;49.456;11.064;2024-01-11T04:35:23;42.33;;;27.83;;
18322;SDS011;9287;49.456;11.064;2024-01-11T04:37:53;41.33;;;27.83;;
18322;SDS011;9287;49.456;11.064;2024-01-11T04:40:21;40.67;;;26.80;;
18322;SDS011;9287;49.456;11.064;2024-01-11T04:42:52;41.83;;;27.57;;
18322;SDS011;9287;49.456;11.064;2024-01-11T04:45:21;40.60;;;26.97;;
18322;SDS011;9287;49.456;11.064;2024-01-11T04:47:50;43.33;;;29.60;;
18322;SDS011;9287;49.456;11.064;2024-01-11T04:50:19;40.53;;;27.07;;
18322;SDS011;9287;49.456;11.064;2024-01-11T04:52:48;41.33;;;28.33;;
18322;SDS011;9287;49.456;11.064;2024-01-11T04:55:16;41.90;;;27.50;;
18322;SDS011;9287;49.456;11.064;2024-01-11T04:57:47;42.50;;;28.30;;
18322;SDS011;9287;49.456;11.064;2024-01-11T05:00:16;39.27;;;27.73;;
18322;SDS011;9287;49.456;11.064;2024-01-11T05:02:44;41.27;;;28.47;;
18322;SDS011;9287;49.456;11.064;2024-01-11T05:05:13;38.83;;;27.20;;
18322;SDS011;9287;49.456;11.064;2024-01-11T05:07:41;43.07;;;30.10;;
18322;SDS011;9287;49.456;11.064;2024-01-11T05:10:11;40.43;;;27.37;;
18322;SDS011;9287;49.456;11.064;2024-01-11T05:12:41;40.57;;;28.53;;
18322;SDS011;9287;49.456;11.064;2024-01-11T05:15:11;42.90;;;27.97;;
18322;SDS011;9287;49.456;11.064;2024-01-11T05:17:40;38.27;;;26.67;;
18322;SDS011;9287;49.456;11.064;2024-01-11T05:20:09;36.97;;;27.13;;
18322;SDS011;9287;49.456;11.064;2024-01-11T05:22:38;42.80;;;28.23;;
18322;SDS011;9287;49.456;11.064;2024-01-11T05:25:07;41.43;;;28.80;;
18322;SDS011;9287;49.456;11.064;2024-01-11T05:27:35;41.03;;;30.00;;
18322;SDS011;9287;49.456;11.064;2024-01-11T05:30:07;40.40;;;26.93;;
18322;SDS011;9287;49.456;11.064;2024-01-11T05:32:38;36.13;;;26.33;;
18322;SDS011;9287;49.456;11.064;2024-01-11T05:35:09;42.53;;;27.67;;
18322;SDS011;9287;49.456;11.064;2024-01-11T05:37:38;42.00;;;27.63;;
18322;SDS011;9287;49.456;11.064;2024-01-11T05:40:06;38.50;;;27.80;;
18322;SDS011;9287;49.456;11.064;2024-01-11T05:42:36;39.80;;;27.00;;
18322;SDS011;9287;49.456;11.064;2024-01-11T05:45:06;41.57;;;28.47;;
18322;SDS011;9287;49.456;11.064;2024-01-11T05:47:34;42.00;;;28.73;;
18322;SDS011;9287;49.456;11.064;2024-01-11T05:50:07;40.40;;;27.23;;
18322;SDS011;9287;49.456;11.064;2024-01-11T05:52:38;41.40;;;27.87;;
18322;SDS011;9287;49.456;11.064;2024-01-11T05:55:07;38.00;;;27.33;;
18322;SDS011;9287;49.456;11.064;2024-01-11T05:57:35;39.77;;;26.40;;
18322;SDS011;9287;49.456;11.064;2024-01-11T06:00:04;43.57;;;27.73;;
18322;SDS011;9287;49.456;11.064;2024-01-11T06:02:32;40.20;;;28.77;;
18322;SDS011;9287;49.456;11.064;2024-01-11T06:05:00;43.13;;;28.17;;
18322;SDS011;9287;49.456;11.064;2024-01-11T06:07:30;41.33;;;28.00;;
18322;SDS011;9287;49.456;11.064;2024-01-11T06:09:59;38.87;;;26.00;;
18322;SDS011;9287;49.456;11.064;2024-01-11T06:12:29;40.43;;;27.90;;
18322;SDS011;9287;49.456;11.064;2024-01-11T06:14:57;42.03;;;29.30;;
18322;SDS011;9287;49.456;11.064;2024-01-11T06:17:26;39.80;;;28.30;;
18322;SDS011;9287;49.456;11.064;2024-01-11T06:19:55;40.13;;;27.97;;
18322;SDS011;9287;49.456;11.064;2024-01-11T06:22:23;40.67;;;27.50;;
18322;SDS011;9287;49.456;11.064;2024-01-11T06:24:52;45.50;;;30.93;;
18322;SDS011;9287;49.456;11.064;2024-01-11T06:27:21;40.57;;;28.37;;
18322;SDS011;9287;49.456;11.064;2024-01-11T06:29:49;41.90;;;27.60;;
18322;SDS011;9287;49.456;11.064;2024-01-11T06:32:17;43.07;;;27.20;;
18322;SDS011;9287;49.456;11.064;2024-01-11T06:34:46;41.23;;;29.13;;
18322;SDS011;9287;49.456;11.064;2024-01-11T06:37:14;46.80;;;28.70;;
18322;SDS011;9287;49.456;11.064;2024-01-11T06:39:43;39.20;;;29.53;;
18322;SDS011;9287;49.456;11.064;2024-01-11T06:42:13;37.93;;;27.80;;
18322;SDS011;9287;49.456;11.064;2024-01-11T06:44:41;43.30;;;29.20;;
18322;SDS011;9287;49.456;11.064;2024-01-11T06:47:09;40.17;;;28.37;;
18322;SDS011;9287;49.456;11.064;2024-01-11T06:49:38;43.37;;;28.50;;
18322;SDS011;9287;49.456;11.064;2024-01-11T06:52:06;40.03;;;28.40;;
18322;SDS011;9287;49.456;11.064;2024-01-11T06:54:34;40.07;;;27.50;;
18322;SDS011;9287;49.456;11.064;2024-01-11T06:57:02;45.23;;;30.37;;
18322;SDS011;9287;49.456;11.064;2024-01-11T06:59:31;41.33;;;28.47;;
18322;SDS011;9287;49.456;11.064;2024-01-11T07:02:00;43.33;;;28.77;;
18322;SDS011;9287;49.456;11.064;2024-01-11T07:04:29;41.00;;;28.33;;
18322;SDS011;9287;49.456;11.064;2024-01-11T07:07:00;40.37;;;29.13;;
18322;SDS011;9287;49.456;11.064;2024-01-11T07:09:31;42.20;;;28.97;;
18322;SDS011;9287;49.456;11.064;2024-01-11T07:11:58;47.27;;;28.53;;
18322;SDS011;9287;49.456;11.064;2024-01-11T07:14:27;43.57;;;27.03;;
18322;SDS011;9287;49.456;11.064;2024-01-11T07:16:57;40.67;;;28.43;;
18322;SDS011;9287;49.456;11.064;2024-01-11T07:19:25;46.60;;;29.00;;
18322;SDS011;9287;49.456;11.064;2024-01-11T07:21:53;44.80;;;30.90;;
18322;SDS011;9287;49.456;11.064;2024-01-11T07:24:21;42.10;;;28.67;;
18322;SDS011;9287;49.456;11.064;2024-01-11T07:26:49;47.73;;;29.63;;
18322;SDS011;9287;49.456;11.064;2024-01-11T07:29:17;44.07;;;29.60;;
18322;SDS011;9287;49.456;11.064;2024-01-11T07:31:45;45.47;;;29.90;;
18322;SDS011;9287;49.456;11.064;2024-01-11T07:34:14;46.27;;;29.23;;
18322;SDS011;9287;49.456;11.064;2024-01-11T07:36:44;40.37;;;28.03;;
18322;SDS011;9287;49.456;11.064;2024-01-11T07:39:12;45.00;;;30.30;;
18322;SDS011;9287;49.456;11.064;2024-01-11T07:41:40;45.40;;;29.50;;
18322;SDS011;9287;49.456;11.064;2024-01-11T07:44:08;46.30;;;30.70;;
18322;SDS011;9287;49.456;11.064;2024-01-11T07:46:36;46.07;;;30.20;;
18322;SDS011;9287;49.456;11.064;2024-01-11T07:49:16;46.97;;;31.13;;
18322;SDS011;9287;49.456;11.064;2024-01-11T07:51:44;48.13;;;29.90;;
18322;SDS011;9287;49.456;11.064;2024-01-11T07:54:12;43.97;;;29.23;;
18322;SDS011;9287;49.456;11.064;2024-01-11T07:56:40;43.37;;;28.03;;
18322;SDS011;9287;49.456;11.064;2024-01-11T07:59:09;44.60;;;28.30;;
18322;SDS011;9287;49.456;11.064;2024-01-11T08:01:40;44.53;;;28.97;;
18322;SDS011;9287;49.456;11.064;2024-01-11T08:04:08;44.93;;;28.57;;
18322;SDS011;9287;49.456;11.064;2024-01-11T08:06:38;41.30;;;27.60;;
18322;SDS011;9287;49.456;11.064;2024-01-11T08:09:06;39.93;;;27.90;;
18322;SDS011;9287;49.456;11.064;2024-01-11T08:11:36;42.80;;;27.20;;
18322;SDS011;9287;49.456;11.064;2024-01-11T08:14:09;37.93;;;26.43;;
18322;SDS011;9287;49.456;11.064;2024-01-11T08:16:36;40.57;;;26.47;;
18322;SDS011;9287;49.456;11.064;2024-01-11T08:19:05;39.10;;;25.77;;
18322;SDS011;9287;49.456;11.064;2024-01-11T08:21:33;34.60;;;26.27;;
18322;SDS011;9287;49.456;11.064;2024-01-11T08:24:02;35.93;;;24.63;;
18322;SDS011;9287;49.456;11.064;2024-01-11T08:26:30;38.37;;;25.60;;
18322;SDS011;9287;49.456;11.064;2024-01-11T08:28:58;42.33;;;26.70;;
18322;SDS011;9287;49.456;11.064;2024-01-11T08:31:26;39.07;;;23.47;;
18322;SDS011;9287;49.456;11.064;2024-01-11T08:33:54;35.57;;;23.87;;
18322;SDS011;9287;49.456;11.064;2024-01-11T08:36:22;35.17;;;23.47;;
18322;SDS011;9287;49.456;11.064;2024-01-11T08:38:50;38.60;;;23.27;;
18322;SDS011;9287;49.456;11.064;2024-01-11T08:41:19;38.20;;;23.13;;
18322;SDS011;9287;49.456;11.064;2024-01-11T08:43:47;32.00;;;21.23;;
18322;SDS011;9287;49.456;11.064;2024-01-11T08:46:22;37.80;;;22.80;;
18322;SDS011;9287;49.456;11.064;2024-01-11T08:48:51;36.67;;;24.23;;
18322;SDS011;9287;49.456;11.064;2024-01-11T08:51:19;39.10;;;24.07;;
18322;SDS011;9287;49.456;11.064;2024-01-11T08:53:47;37.57;;;23.57;;
18322;SDS011;9287;49.456;11.064;2024-01-11T08:56:15;36.37;;;23.03;;
18322;SDS011;9287;49.456;11.064;2024-01-11T08:58:45;35.90;;;23.60;;
18322;SDS011;9287;49.456;11.064;2024-01-11T09:01:14;35.27;;;22.37;;
18322;SDS011;9287;49.456;11.064;2024-01-11T09:03:42;32.03;;;22.27;;
18322;SDS011;9287;49.456;11.064;2024-01-11T09:06:10;36.47;;;23.03;;
18322;SDS011;9287;49.456;11.064;2024-01-11T09:08:39;34.50;;;21.97;;
18322;SDS011;9287;49.456;11.064;2024-01-11T09:11:08;36.13;;;22.97;;
18322;SDS011;9287;49.456;11.064;2024-01-11T09:13:36;31.77;;;21.07;;
18322;SDS011;9287;49.456;11.064;2024-01-11T09:16:08;31.57;;;21.13;;
18322;SDS011;9287;49.456;11.064;2024-01-11T09:18:36;30.30;;;19.93;;
18322;SDS011;9287;49.456;11.064;2024-01-11T09:21:08;31.83;;;19.77;;
18322;SDS011;9287;49.456;11.064;2024-01-11T09:23:36;30.97;;;19.97;;
18322;SDS011;9287;49.456;11.064;2024-01-11T09:26:05;32.07;;;20.47;;
18322;SDS011;9287;49.456;11.064;2024-01-11T09:28:33;30.60;;;19.83;;
18322;SDS011;9287;49.456;11.064;2024-01-11T09:31:00;32.97;;;21.30;;
18322;SDS011;9287;49.456;11.064;2024-01-11T09:33:30;31.57;;;20.43;;
18322;SDS011;9287;49.456;11.064;2024-01-11T09:35:58;32.97;;;21.30;;
18322;SDS011;9287;49.456;11.064;2024-01-11T09:38:26;34.03;;;20.70;;
18322;SDS011;9287;49.456;11.064;2024-01-11T09:40:58;30.17;;;20.30;;
18322;SDS011;9287;49.456;11.064;2024-01-11T09:43:34;30.17;;;20.63;;
18322;SDS011;9287;49.456;11.064;2024-01-11T09:46:03;29.87;;;20.67;;
18322;SDS011;9287;49.456;11.064;2024-01-11T09:48:34;31.70;;;21.13;;
18322;SDS011;9287;49.456;11.064;2024-01-11T09:51:03;31.70;;;21.67;;
18322;SDS011;9287;49.456;11.064;2024-01-11T09:53:36;31.80;;;20.70;;
18322;SDS011;9287;49.456;11.064;2024-01-11T09:56:21;31.73;;;20.43;;
18322;SDS011;9287;49.456;11.064;2024-01-11T09:58:50;31.10;;;20.47;;
18322;SDS011;9287;49.456;11.064;2024-01-11T10:01:18;31.40;;;20.10;;
18322;SDS011;9287;49.456;11.064;2024-01-11T10:03:48;31.43;;;20.37;;
18322;SDS011;9287;49.456;11.064;2024-01-11T10:06:16;31.87;;;19.60;;
18322;SDS011;9287;49.456;11.064;2024-01-11T10:08:45;30.73;;;20.13;;
18322;SDS011;9287;49.456;11.064;2024-01-11T10:11:13;30.00;;;21.17;;
18322;SDS011;9287;49.456;11.064;2024-01-11T10:13:40;32.07;;;21.80;;
18322;SDS011;9287;49.456;11.064;2024-01-11T10:16:09;30.57;;;21.17;;
18322;SDS011;9287;49.456;11.064;2024-01-11T10:18:40;35.63;;;20.50;;
18322;SDS011;9287;49.456;11.064;2024-01-11T10:21:10;34.00;;;20.73;;
18322;SDS011;9287;49.456;11.064;2024-01-11T10:23:38;33.37;;;21.13;;
18322;SDS011;9287;49.456;11.064;2024-01-11T10:26:06;31.07;;;20.57;;
18322;SDS011;9287;49.456;11.064;2024-01-11T10:28:35;30.73;;;19.80;;
18322;SDS011;9287;49.456;11.064;2024-01-11T10:31:04;30.50;;;20.77;;
18322;SDS011;9287;49.456;11.064;2024-01-11T10:33:33;32.20;;;21.07;;
18322;SDS011;9287;49.456;11.064;2024-01-11T10:36:02;33.37;;;20.97;;
18322;SDS011;9287;49.456;11.064;2024-01-11T10:38:33;28.73;;;19.67;;
18322;SDS011;9287;49.456;11.064;2024-01-11T10:41:05;29.63;;;19.63;;
18322;SDS011;9287;49.456;11.064;2024-01-11T10:43:36;31.57;;;20.37;;
18322;SDS011;9287;49.456;11.064;2024-01-11T10:46:05;29.57;;;20.60;;
18322;SDS011;9287;49.456;11.064;2024-01-11T10:48:37;28.70;;;19.73;;
18322;SDS011;9287;49.456;11.064;2024-01-11T10:51:07;31.90;;;20.13;;
18322;SDS011;9287;49.456;11.064;2024-01-11T10:53:43;31.77;;;20.80;;
18322;SDS011;9287;49.456;11.064;2024-01-11T10:56:14;29.77;;;20.73;;
18322;SDS011;9287;49.456;11.064;2024-01-11T10:58:43;30.10;;;20.50;;
18322;SDS011;9287;49.456;11.064;2024-01-11T11:01:12;34.53;;;20.50;;
18322;SDS011;9287;49.456;11.064;2024-01-11T11:03:41;28.83;;;19.87;;
18322;SDS011;9287;49.456;11.064;2024-01-11T11:06:11;35.80;;;20.47;;
18322;SDS011;9287;49.456;11.064;2024-01-11T11:08:40;31.70;;;18.17;;
18322;SDS011;9287;49.456;11.064;2024-01-11T11:11:11;24.13;;;16.83;;
18322;SDS011;9287;49.456;11.064;2024-01-11T11:13:40;26.10;;;18.47;;
18322;SDS011;9287;49.456;11.064;2024-01-11T11:16:09;28.67;;;18.93;;
18322;SDS011;9287;49.456;11.064;2024-01-11T11:18:37;28.70;;;18.13;;
18322;SDS011;9287;49.456;11.064;2024-01-11T11:21:06;26.07;;;16.80;;
18322;SDS011;9287;49.456;11.064;2024-01-11T11:23:37;23.10;;;16.90;;
18322;SDS011;9287;49.456;11.064;2024-01-11T11:26:07;23.00;;;16.43;;
18322;SDS011;9287;49.456;11.064;2024-01-11T11:28:41;26.87;;;16.87;;
18322;SDS011;9287;49.456;11.064;2024-01-11T11:31:10;30.87;;;18.97;;
18322;SDS011;9287;49.456;11.064;2024-01-11T11:33:38;28.20;;;17.90;;
18322;SDS011;9287;49.456;11.064;2024-01-11T11:36:11;27.07;;;17.97;;
18322;SDS011;9287;49.456;11.064;2024-01-11T11:38:40;30.43;;;18.90;;
18322;SDS011;9287;49.456;11.064;2024-01-11T11:41:10;29.10;;;18.40;;
18322;SDS011;9287;49.456;11.064;2024-01-11T11:43:39;26.37;;;18.23;;
18322;SDS011;9287;49.456;11.064;2024-01-11T11:46:07;26.00;;;17.73;;
18322;SDS011;9287;49.456;11.064;2024-01-11T11:51:25;25.70;;;18.00;;
18322;SDS011;9287;49.456;11.064;2024-01-11T11:53:55;25.90;;;17.53;;
18322;SDS011;9287;49.456;11.064;2024-01-11T11:56:26;27.03;;;17.87;;
18322;SDS011;9287;49.456;11.064;2024-01-11T11:58:55;24.40;;;17.67;;
18322;SDS011;9287;49.456;11.064;2024-01-11T12:01:24;24.87;;;16.70;;
18322;SDS011;9287;49.456;11.064;2024-01-11T12:03:52;23.43;;;16.53;;
18322;SDS011;9287;49.456;11.064;2024-01-11T12:06:23;20.93;;;16.20;;
18322;SDS011;9287;49.456;11.064;2024-01-11T12:08:54;22.93;;;15.90;;
18322;SDS011;9287;49.456;11.064;2024-01-11T12:11:25;24.90;;;16.13;;
18322;SDS011;9287;49.456;11.064;2024-01-11T12:13:54;23.20;;;15.97;;
18322;SDS011;9287;49.456;11.064;2024-01-11T12:16:24;22.37;;;15.77;;
18322;SDS011;9287;49.456;11.064;2024-01-11T12:18:52;20.10;;;14.93;;
18322;SDS011;9287;49.456;11.064;2024-01-11T12:21:21;21.23;;;15.60;;
18322;SDS011;9287;49.456;11.064;2024-01-11T12:23:49;25.30;;;16.07;;
18322;SDS011;9287;49.456;11.064;2024-01-11T12:26:17;22.43;;;15.50;;
18322;SDS011;9287;49.456;11.064;2024-01-11T12:28:51;20.97;;;14.90;;
18322;SDS011;9287;49.456;11.064;2024-01-11T12:31:21;22.43;;;15.63;;
18322;SDS011;9287;49.456;11.064;2024-01-11T12:33:50;22.93;;;15.90;;
18322;SDS011;9287;49.456;11.064;2024-01-11T12:36:19;22.87;;;16.33;;
18322;SDS011;9287;49.456;11.064;2024-01-11T12:38:48;24.63;;;16.07;;
18322;SDS011;9287;49.456;11.064;2024-01-11T12:41:19;22.77;;;15.83;;
18322;SDS011;9287;49.456;11.064;2024-01-11T12:43:50;24.50;;;16.17;;
18322;SDS011;9287;49.456;11.064;2024-01-11T12:46:19;24.77;;;15.90;;
18322;SDS011;9287;49.456;11.064;2024-01-11T12:48:49;22.10;;;16.13;;
18322;SDS011;9287;49.456;11.064;2024-01-11T12:51:19;24.50;;;16.53;;
18322;SDS011;9287;49.456;11.064;2024-01-11T12:53:51;24.13;;;15.70;;
18322;SDS011;9287;49.456;11.064;2024-01-11T12:56:19;29.70;;;16.50;;
18322;SDS011;9287;49.456;11.064;2024-01-11T12:58:53;22.73;;;15.27;;
18322;SDS011;9287;49.456;11.064;2024-01-11T13:01:34;23.80;;;15.40;;
18322;SDS011;9287;49.456;11.064;2024-01-11T13:04:03;23.07;;;16.27;;
18322;SDS011;9287;49.456;11.064;2024-01-11T13:06:31;21.17;;;14.80;;
18322;SDS011;9287;49.456;11.064;2024-01-11T13:09:00;24.20;;;16.07;;
18322;SDS011;9287;49.456;11.064;2024-01-11T13:11:29;20.63;;;14.27;;
18322;SDS011;9287;49.456;11.064;2024-01-11T13:13:59;19.43;;;14.70;;
18322;SDS011;9287;49.456;11.064;2024-01-11T13:16:31;19.43;;;14.47;;
18322;SDS011;9287;49.456;11.064;2024-01-11T13:18:59;21.40;;;13.83;;
18322;SDS011;9287;49.456;11.064;2024-01-11T13:21:27;19.77;;;14.47;;
18322;SDS011;9287;49.456;11.064;2024-01-11T13:23:56;23.50;;;15.33;;
18322;SDS011;9287;49.456;11.064;2024-01-11T13:26:24;21.43;;;15.03;;
18322;SDS011;9287;49.456;11.064;2024-01-11T13:28:52;20.90;;;14.47;;
18322;SDS011;9287;49.456;11.064;2024-01-11T13:31:21;23.77;;;15.87;;
18322;SDS011;9287;49.456;11.064;2024-01-11T13:33:49;23.73;;;15.20;;
18322;SDS011;9287;49.456;11.064;2024-01-11T13:36:18;22.97;;;15.73;;
18322;SDS011;9287;49.456;11.064;2024-01-11T13:38:46;23.77;;;15.83;;
18322;SDS011;9287;49.456;11.064;2024-01-11T13:41:14;20.03;;;14.90;;
18322;SDS011;9287;49.456;11.064;2024-01-11T13:43:42;22.43;;;15.87;;
18322;SDS011;9287;49.456;11.064;2024-01-11T13:46:10;22.67;;;15.50;;
18322;SDS011;9287;49.456;11.064;2024-01-11T13:48:44;23.33;;;16.37;;
18322;SDS011;9287;49.456;11.064;2024-01-11T13:51:12;23.53;;;15.57;;
18322;SDS011;9287;49.456;11.064;2024-01-11T13:53:40;29.53;;;15.90;;
18322;SDS011;9287;49.456;11.064;2024-01-11T13:56:09;21.73;;;14.80;;
18322;SDS011;9287;49.456;11.064;2024-01-11T13:58:37;24.83;;;15.53;;
18322;SDS011;9287;49.456;11.064;2024-01-11T14:01:05;21.80;;;14.97;;
18322;SDS011;9287;49.456;11.064;2024-01-11T14:03:34;23.20;;;15.23;;
18322;SDS011;9287;49.456;11.064;2024-01-11T14:06:04;25.27;;;16.20;;
18322;SDS011;9287;49.456;11.064;2024-01-11T14:08:32;23.40;;;14.87;;
18322;SDS011;9287;49.456;11.064;2024-01-11T14:11:00;24.30;;;15.33;;
18322;SDS011;9287;49.456;11.064;2024-01-11T14:13:28;19.60;;;14.67;;
18322;SDS011;9287;49.456;11.064;2024-01-11T14:15:56;21.73;;;14.90;;
18322;SDS011;9287;49.456;11.064;2024-01-11T14:18:24;20.63;;;14.77;;
18322;SDS011;9287;49.456;11.064;2024-01-11T14:20:52;19.03;;;13.63;;
18322;SDS011;9287;49.456;11.064;2024-01-11T14:23:22;22.27;;;15.13;;
18322;SDS011;9287;49.456;11.064;2024-01-11T14:25:49;20.77;;;14.63;;
18322;SDS011;9287;49.456;11.064;2024-01-11T14:28:17;21.47;;;15.03;;
18322;SDS011;9287;49.456;11.064;2024-01-11T14:30:45;19.33;;;14.30;;
18322;SDS011;9287;49.456;11.064;2024-01-11T14:33:13;23.37;;;14.23;;
18322;SDS011;9287;49.456;11.064;2024-01-11T14:35:41;21.13;;;14.50;;
18322;SDS011;9287;49.456;11.064;2024-01-11T14:38:09;23.03;;;14.73;;